createdAt,value
2023-05-12T00:01:19.795Z,100.00
2023-05-12T00:04:22.494Z,100.00
2023-05-12T00:07:26.662Z,100.00
2023-05-12T00:10:29.457Z,100.00
2023-05-12T00:13:32.102Z,100.00
2023-05-12T00:16:34.782Z,100.00
2023-05-12T00:19:37.435Z,100.00
2023-05-12T00:22:42.160Z,100.00
2023-05-12T00:25:44.730Z,100.00
2023-05-12T00:28:47.597Z,100.00
2023-05-12T00:31:50.286Z,100.00
2023-05-12T00:34:54.200Z,100.00
2023-05-12T00:37:58.150Z,100.00
2023-05-12T00:41:00.733Z,100.00
2023-05-12T00:44:03.346Z,100.00
2023-05-12T00:47:06.489Z,100.00
2023-05-12T00:50:10.076Z,100.00
2023-05-12T00:53:14.227Z,99.40
2023-05-12T00:56:18.193Z,100.00
2023-05-12T00:59:20.780Z,99.81
2023-05-12T01:02:24.117Z,98.89
2023-05-12T01:05:31.612Z,97.69
2023-05-12T01:08:36.119Z,96.89
2023-05-12T01:11:38.927Z,97.85
2023-05-12T01:14:41.935Z,97.21
2023-05-12T01:17:51.218Z,96.65
2023-05-12T01:20:56.384Z,95.93
2023-05-12T01:24:07.411Z,95.48
2023-05-12T01:27:11.760Z,94.46
2023-05-12T01:30:17.897Z,94.33
2023-05-12T01:33:20.637Z,94.92
2023-05-12T01:36:23.222Z,94.09
2023-05-12T01:39:26.157Z,93.30
2023-05-12T01:42:30.252Z,92.03
2023-05-12T01:45:33.317Z,90.44
2023-05-12T01:48:35.900Z,91.42
2023-05-12T01:51:38.486Z,89.76
2023-05-12T01:54:41.080Z,91.15
2023-05-12T01:57:45.001Z,89.20
2023-05-12T02:00:47.612Z,88.49
2023-05-12T02:03:50.332Z,88.17
2023-05-12T02:06:53.021Z,89.18
2023-05-12T02:09:55.601Z,88.49
2023-05-12T02:12:59.636Z,83.62
2023-05-12T02:16:02.695Z,86.92
2023-05-12T02:19:05.436Z,86.95
2023-05-12T02:22:08.203Z,87.31
2023-05-12T02:25:10.938Z,86.21
2023-05-12T02:28:14.908Z,87.11
2023-05-12T02:31:17.471Z,86.21
2023-05-12T02:34:20.035Z,87.40
2023-05-12T02:37:22.634Z,86.33
2023-05-12T02:40:25.212Z,83.39
2023-05-12T02:43:29.164Z,84.81
2023-05-12T02:46:31.745Z,85.08
2023-05-12T02:49:34.377Z,86.40
2023-05-12T02:52:36.954Z,85.44
2023-05-12T02:55:40.100Z,86.29
2023-05-12T02:58:44.276Z,87.24
2023-05-12T03:01:46.903Z,87.20
2023-05-12T03:04:49.526Z,86.82
2023-05-12T03:07:52.187Z,86.75
2023-05-12T03:10:54.840Z,87.20
2023-05-12T03:13:58.790Z,87.32
2023-05-12T03:17:01.453Z,86.56
2023-05-12T03:20:04.408Z,87.50
2023-05-12T03:23:06.996Z,87.84
2023-05-12T03:26:09.549Z,87.84
2023-05-12T03:29:13.519Z,88.23
2023-05-12T03:32:16.672Z,89.01
2023-05-12T03:35:19.346Z,89.56
2023-05-12T03:38:22.253Z,87.02
2023-05-12T03:41:24.859Z,87.51
2023-05-12T03:44:28.802Z,88.03
2023-05-12T03:47:31.662Z,88.62
2023-05-12T03:50:34.366Z,90.60
2023-05-12T03:53:36.966Z,89.96
2023-05-12T03:56:39.536Z,89.08
2023-05-12T03:59:43.469Z,89.35
2023-05-12T04:02:46.305Z,89.00
2023-05-12T04:05:49.016Z,89.00
2023-05-12T04:08:51.570Z,88.97
2023-05-12T04:11:54.151Z,89.35
2023-05-12T04:14:58.218Z,88.97
2023-05-12T04:18:00.879Z,88.69
2023-05-12T04:21:03.963Z,89.04
2023-05-12T04:24:06.961Z,90.06
2023-05-12T04:27:09.570Z,88.15
2023-05-12T04:30:13.907Z,87.76
2023-05-12T04:33:16.501Z,88.46
2023-05-12T04:36:19.146Z,89.65
2023-05-12T04:39:21.770Z,90.30
2023-05-12T04:42:24.351Z,90.24
2023-05-12T04:45:28.335Z,88.95
2023-05-12T04:48:31.058Z,90.06
2023-05-12T04:51:33.699Z,90.52
2023-05-12T04:54:36.340Z,91.13
2023-05-12T04:57:41.205Z,92.01
2023-05-12T05:00:45.290Z,91.73
2023-05-12T05:03:47.986Z,90.91
2023-05-12T05:06:50.704Z,91.75
2023-05-12T05:09:53.709Z,88.71
2023-05-12T05:12:56.344Z,89.88
2023-05-12T05:16:00.365Z,89.75
2023-05-12T05:19:06.424Z,90.10
2023-05-12T05:22:11.932Z,90.65
2023-05-12T05:25:14.967Z,90.01
2023-05-12T05:28:17.938Z,90.63
2023-05-12T05:31:22.247Z,88.96
2023-05-12T05:34:24.899Z,87.97
2023-05-12T05:37:27.538Z,86.48
2023-05-12T05:40:36.041Z,86.54
2023-05-12T05:43:47.834Z,86.99
2023-05-12T05:46:51.958Z,85.37
2023-05-12T05:49:54.765Z,87.10
2023-05-12T05:52:57.387Z,87.18
2023-05-12T05:56:00.063Z,86.53
2023-05-12T05:59:04.399Z,85.53
2023-05-12T06:02:08.414Z,85.81
2023-05-12T06:05:13.652Z,84.96
2023-05-12T06:08:16.995Z,84.78
2023-05-12T06:11:19.552Z,84.13
2023-05-12T06:14:22.130Z,85.56
2023-05-12T06:17:26.095Z,81.87
2023-05-12T06:20:28.730Z,83.45
2023-05-12T06:23:31.696Z,81.29
2023-05-12T06:26:34.326Z,82.26
2023-05-12T06:29:36.941Z,80.16
2023-05-12T06:32:40.938Z,81.12
2023-05-12T06:35:43.563Z,80.34
2023-05-12T06:38:46.197Z,76.46
2023-05-12T06:41:48.777Z,79.59
2023-05-12T06:44:51.815Z,77.58
2023-05-12T06:47:57.563Z,76.11
2023-05-12T06:51:01.325Z,75.78
2023-05-12T06:54:03.984Z,74.62
2023-05-12T06:57:06.826Z,71.25
2023-05-12T07:00:10.710Z,70.61
2023-05-12T07:03:14.853Z,68.85
2023-05-12T07:06:17.689Z,68.53
2023-05-12T07:09:20.651Z,70.89
2023-05-12T07:12:23.276Z,69.28
2023-05-12T07:15:25.905Z,67.77
2023-05-12T07:18:29.907Z,64.88
2023-05-12T07:21:32.597Z,70.52
2023-05-12T07:24:35.269Z,66.07
2023-05-12T07:27:37.880Z,65.69
2023-05-12T07:30:40.612Z,69.59
2023-05-12T07:33:44.612Z,63.43
2023-05-12T07:36:47.217Z,62.00
2023-05-12T07:39:49.859Z,60.24
2023-05-12T07:42:53.018Z,61.60
2023-05-12T07:45:56.139Z,61.30
2023-05-12T07:49:00.162Z,57.08
2023-05-12T07:52:03.021Z,62.70
2023-05-12T07:55:06.145Z,57.97
2023-05-12T07:58:08.766Z,57.72
2023-05-12T08:01:11.409Z,58.02
2023-05-12T08:04:15.486Z,57.13
2023-05-12T08:07:18.115Z,55.85
2023-05-12T08:10:20.713Z,55.75
2023-05-12T08:13:23.353Z,57.27
2023-05-12T08:16:26.107Z,53.72
2023-05-12T08:19:30.067Z,52.48
2023-05-12T08:22:32.876Z,51.75
2023-05-12T08:25:36.986Z,50.38
2023-05-12T08:28:39.867Z,49.19
2023-05-12T08:31:42.541Z,50.49
2023-05-12T08:34:46.519Z,49.41
2023-05-12T08:37:49.208Z,46.70
2023-05-12T08:40:58.498Z,47.96
2023-05-12T08:44:01.382Z,49.86
2023-05-12T08:47:06.091Z,46.90
2023-05-12T08:50:13.241Z,50.51
2023-05-12T08:53:19.716Z,44.21
2023-05-12T08:59:29.870Z,45.92
2023-05-12T09:02:44.636Z,44.16
2023-05-12T09:05:52.652Z,44.58
2023-05-12T09:08:55.642Z,41.46
2023-05-12T09:12:01.436Z,42.73
2023-05-12T09:15:12.916Z,39.13
2023-05-12T09:18:16.068Z,41.64
2023-05-12T09:21:20.526Z,38.67
2023-05-12T09:24:34.828Z,40.06
2023-05-12T09:27:37.668Z,36.14
2023-05-12T09:30:42.282Z,38.59
2023-05-12T09:33:44.961Z,39.73
2023-05-12T09:36:58.141Z,38.92
2023-05-12T09:40:01.619Z,37.93
2023-05-12T09:43:04.737Z,38.49
2023-05-12T09:46:07.920Z,36.47
2023-05-12T09:49:10.552Z,34.28
2023-05-12T09:52:14.494Z,34.25
2023-05-12T09:55:17.237Z,34.93
2023-05-12T09:58:21.516Z,32.71
2023-05-12T10:01:25.269Z,35.20
2023-05-12T10:04:29.972Z,34.67
2023-05-12T10:07:35.438Z,33.35
2023-05-12T10:10:38.314Z,33.36
2023-05-12T10:13:41.462Z,31.24
2023-05-12T10:16:46.256Z,34.42
2023-05-12T10:19:52.074Z,35.51
2023-05-12T10:22:58.825Z,33.02
2023-05-12T10:26:03.326Z,33.43
2023-05-12T10:29:06.983Z,30.79
2023-05-12T10:32:10.529Z,31.31
2023-05-12T10:35:14.484Z,31.38
2023-05-12T10:38:19.703Z,32.85
2023-05-12T10:41:32.342Z,33.48
2023-05-12T10:44:35.832Z,33.11
2023-05-12T10:47:38.885Z,33.24
2023-05-12T10:50:54.501Z,30.27
2023-05-12T10:54:03.653Z,30.59
2023-05-12T10:57:17.943Z,32.80
2023-05-12T11:00:26.400Z,33.61
2023-05-12T11:03:30.401Z,33.59
2023-05-12T11:06:34.264Z,34.35
2023-05-12T11:09:50.389Z,32.67
2023-05-12T11:12:56.198Z,32.08
2023-05-12T11:15:59.146Z,33.04
2023-05-12T11:19:03.266Z,31.95
2023-05-12T11:22:07.796Z,29.26
2023-05-12T11:25:12.968Z,31.33
2023-05-12T11:28:15.630Z,33.36
2023-05-12T11:31:19.931Z,28.89
2023-05-12T11:34:23.855Z,29.64
2023-05-12T11:37:26.518Z,30.52
2023-05-12T11:40:30.504Z,28.99
2023-05-12T11:43:33.140Z,29.64
2023-05-12T11:46:35.743Z,28.83
2023-05-12T11:49:47.475Z,32.68
2023-05-12T11:52:50.699Z,32.03
2023-05-12T11:55:56.599Z,31.23
2023-05-12T11:58:59.935Z,32.06
2023-05-12T12:02:04.439Z,30.37
2023-05-12T12:05:17.739Z,30.13
2023-05-12T12:08:20.532Z,27.83
2023-05-12T12:11:26.808Z,29.87
2023-05-12T12:14:29.620Z,27.71
2023-05-12T12:17:32.209Z,29.29
2023-05-12T12:20:34.850Z,27.64
2023-05-12T12:23:49.946Z,28.25
2023-05-12T12:26:54.687Z,28.88
2023-05-12T12:29:57.331Z,29.20
2023-05-12T12:33:00.110Z,29.43
2023-05-12T12:36:02.824Z,27.59
2023-05-12T12:39:05.422Z,27.27
2023-05-12T12:42:09.439Z,26.65
2023-05-12T12:45:13.401Z,26.64
2023-05-12T12:48:16.031Z,26.45
2023-05-12T12:51:18.815Z,26.21
2023-05-12T12:54:21.561Z,25.63
2023-05-12T12:57:26.034Z,27.83
2023-05-12T13:00:28.764Z,26.17
2023-05-12T13:03:31.431Z,29.17
2023-05-12T13:06:34.589Z,30.18
2023-05-12T13:09:37.220Z,30.55
2023-05-12T13:12:41.254Z,31.36
2023-05-12T13:15:43.831Z,31.66
2023-05-12T13:18:46.522Z,32.58
2023-05-12T13:21:49.550Z,30.40
2023-05-12T13:24:52.141Z,31.14
2023-05-12T13:27:56.103Z,32.91
2023-05-12T13:30:58.789Z,31.12
2023-05-12T13:34:01.474Z,32.10
2023-05-12T13:37:04.055Z,34.48
2023-05-12T13:40:08.083Z,32.90
2023-05-12T13:43:12.977Z,32.81
2023-05-12T13:46:15.624Z,32.20
2023-05-12T13:49:19.726Z,33.25
2023-05-12T13:52:22.307Z,33.18
2023-05-12T13:55:25.523Z,31.01
2023-05-12T13:58:29.715Z,32.23
2023-05-12T14:01:32.529Z,31.23
2023-05-12T14:04:35.174Z,32.05
2023-05-12T14:07:37.782Z,32.37
2023-05-12T14:10:40.392Z,34.14
2023-05-12T14:13:44.384Z,33.95
2023-05-12T14:16:47.295Z,34.05
2023-05-12T14:19:49.902Z,33.81
2023-05-12T14:22:52.510Z,32.95
2023-05-12T14:25:55.407Z,34.54
2023-05-12T14:28:59.406Z,35.58
2023-05-12T14:32:02.941Z,35.96
2023-05-12T14:35:08.261Z,35.54
2023-05-12T14:38:11.124Z,36.27
2023-05-12T14:41:13.804Z,36.36
2023-05-12T14:44:17.762Z,36.59
2023-05-12T14:47:20.348Z,37.83
2023-05-12T14:50:23.715Z,37.77
2023-05-12T14:53:26.419Z,37.90
2023-05-12T14:56:29.162Z,37.40
2023-05-12T14:59:33.279Z,38.40
2023-05-12T15:02:35.974Z,38.42
2023-05-12T15:05:56.847Z,39.64
2023-05-12T15:09:01.371Z,38.30
2023-05-12T15:12:04.013Z,38.43
2023-05-12T15:15:11.429Z,39.13
2023-05-12T15:18:14.103Z,39.04
2023-05-12T15:21:16.756Z,37.91
2023-05-12T15:24:19.349Z,38.71
2023-05-12T15:27:21.925Z,40.33
2023-05-12T15:30:25.863Z,39.23
2023-05-12T15:33:29.856Z,39.74
2023-05-12T15:36:33.043Z,38.75
2023-05-12T15:39:35.653Z,39.99
2023-05-12T15:42:38.207Z,39.53
2023-05-12T15:45:42.192Z,40.44
2023-05-12T15:48:44.768Z,39.37
2023-05-12T15:51:47.341Z,38.83
2023-05-12T15:54:49.899Z,40.30
2023-05-12T15:57:53.584Z,39.37
2023-05-12T16:00:57.768Z,40.24
2023-05-12T16:04:00.649Z,39.95
2023-05-12T16:07:03.611Z,39.38
2023-05-12T16:10:07.091Z,40.67
2023-05-12T16:13:09.786Z,40.38
2023-05-12T16:16:14.021Z,40.02
2023-05-12T16:19:16.900Z,40.21
2023-05-12T16:22:19.514Z,40.64
2023-05-12T16:25:22.713Z,40.86
2023-05-12T16:28:25.339Z,39.96
2023-05-12T16:31:30.756Z,39.86
2023-05-12T16:34:33.385Z,39.92
2023-05-12T16:37:36.024Z,40.10
2023-05-12T16:40:38.585Z,40.10
2023-05-12T16:43:41.161Z,40.70
2023-05-12T16:46:45.143Z,39.56
2023-05-12T16:49:47.749Z,39.86
2023-05-12T16:52:50.937Z,40.90
2023-05-12T16:55:53.634Z,40.38
2023-05-12T16:58:56.253Z,41.04
2023-05-12T17:02:01.261Z,41.74
2023-05-12T17:05:03.857Z,41.04
2023-05-12T17:08:06.451Z,40.99
2023-05-12T17:11:09.582Z,41.79
2023-05-12T17:14:12.435Z,41.75
2023-05-12T17:17:16.386Z,41.49
2023-05-12T17:20:19.253Z,43.16
2023-05-12T17:23:22.066Z,42.25
2023-05-12T17:26:27.547Z,42.64
2023-05-12T17:29:30.114Z,42.78
2023-05-12T17:32:34.102Z,43.13
2023-05-12T17:35:36.818Z,42.76
2023-05-12T17:38:39.847Z,43.38
2023-05-12T17:41:42.563Z,43.32
2023-05-12T17:44:45.417Z,42.94
2023-05-12T17:47:50.331Z,43.68
2023-05-12T17:50:52.983Z,43.14
2023-05-12T17:53:55.577Z,43.41
2023-05-12T17:56:58.208Z,43.10
2023-05-12T18:00:01.425Z,42.96
2023-05-12T18:03:05.535Z,43.24
2023-05-12T18:06:12.649Z,43.60
2023-05-12T18:09:15.494Z,43.75
2023-05-12T18:12:18.865Z,43.63
2023-05-12T18:15:22.765Z,44.55
2023-05-12T18:18:27.077Z,44.56
2023-05-12T18:21:29.706Z,45.18
2023-05-12T18:24:32.318Z,45.11
2023-05-12T18:27:34.944Z,45.72
2023-05-12T18:30:38.286Z,46.22
2023-05-12T18:33:42.273Z,47.10
2023-05-12T18:36:45.624Z,47.20
2023-05-12T18:39:48.677Z,47.88
2023-05-12T18:42:51.758Z,47.72
2023-05-12T18:45:54.380Z,47.99
2023-05-12T18:48:58.309Z,48.35
2023-05-12T18:52:00.921Z,49.48
2023-05-12T18:55:03.524Z,50.07
2023-05-12T18:58:06.590Z,50.21
2023-05-12T19:01:09.289Z,50.30
2023-05-12T19:04:13.224Z,50.83
2023-05-12T19:07:16.853Z,51.16
2023-05-12T19:10:19.498Z,51.83
2023-05-12T19:13:22.083Z,52.11
2023-05-12T19:16:24.754Z,53.36
2023-05-12T19:19:29.013Z,53.83
2023-05-12T19:22:31.685Z,54.05
2023-05-12T19:25:35.254Z,54.54
2023-05-12T19:28:38.146Z,55.39
2023-05-12T19:31:40.884Z,55.70
2023-05-12T19:34:45.011Z,56.80
2023-05-12T19:37:47.612Z,57.72
2023-05-12T19:40:50.280Z,57.75
2023-05-12T19:43:52.862Z,58.41
2023-05-12T19:46:56.551Z,59.04
2023-05-12T19:50:00.505Z,60.02
2023-05-12T19:53:03.168Z,60.38
2023-05-12T19:56:05.801Z,61.06
2023-05-12T19:59:08.423Z,61.57
2023-05-12T20:02:14.389Z,61.74
2023-05-12T20:05:18.736Z,62.63
2023-05-12T20:08:21.419Z,63.37
2023-05-12T20:11:24.927Z,63.88
2023-05-12T20:14:27.551Z,64.41
2023-05-12T20:17:30.159Z,65.05
2023-05-12T20:20:34.157Z,64.87
2023-05-12T20:23:36.853Z,65.38
2023-05-12T20:26:39.461Z,65.72
2023-05-12T20:29:42.064Z,66.48
2023-05-12T20:32:44.691Z,66.72
2023-05-12T20:35:48.650Z,67.11
2023-05-12T20:38:51.231Z,67.65
2023-05-12T20:41:54.197Z,67.84
2023-05-12T20:44:56.780Z,68.21
2023-05-12T20:47:59.437Z,68.25
2023-05-12T20:51:12.351Z,70.45
2023-05-12T20:54:14.949Z,69.41
2023-05-12T20:57:17.566Z,70.30
2023-05-12T21:00:20.467Z,70.20
2023-05-12T21:03:23.930Z,70.26
2023-05-12T21:06:27.912Z,70.30
2023-05-12T21:09:30.523Z,71.18
2023-05-12T21:12:33.255Z,71.28
2023-05-12T21:15:36.269Z,71.24
2023-05-12T21:18:39.018Z,71.56
2023-05-12T21:21:43.010Z,71.76
2023-05-12T21:24:45.604Z,72.56
2023-05-12T21:27:48.359Z,72.73
2023-05-12T21:30:50.942Z,72.67
2023-05-12T21:33:53.572Z,73.45
2023-05-12T21:36:57.568Z,73.86
2023-05-12T21:40:00.226Z,73.18
2023-05-12T21:43:02.867Z,73.34
2023-05-12T21:46:06.388Z,72.89
2023-05-12T21:49:09.101Z,73.25
2023-05-12T21:52:13.105Z,73.45
2023-05-12T21:55:16.142Z,73.82
2023-05-12T21:58:18.758Z,73.98
2023-05-12T22:01:21.457Z,74.15
2023-05-12T22:04:24.452Z,74.65
2023-05-12T22:07:28.489Z,73.95
2023-05-12T22:10:31.508Z,74.37
2023-05-12T22:13:34.108Z,74.66
2023-05-12T22:16:41.870Z,74.77
2023-05-12T22:19:45.305Z,74.93
2023-05-12T22:22:49.525Z,74.56
2023-05-12T22:25:52.232Z,74.91
2023-05-12T22:28:54.869Z,74.83
2023-05-12T22:31:57.465Z,75.35
2023-05-12T22:35:00.170Z,74.29
2023-05-12T22:38:04.182Z,75.00
2023-05-12T22:41:06.760Z,74.87
2023-05-12T22:44:09.724Z,74.82
2023-05-12T22:47:12.410Z,75.35
2023-05-12T22:50:15.012Z,75.69
2023-05-12T22:53:18.927Z,75.13
2023-05-12T22:56:21.552Z,76.37
2023-05-12T22:59:24.133Z,76.56
2023-05-12T23:02:26.840Z,76.23
2023-05-12T23:05:29.479Z,76.86
2023-05-12T23:08:33.421Z,76.50
2023-05-12T23:11:36.040Z,76.70
2023-05-12T23:14:38.623Z,76.22
2023-05-12T23:17:41.245Z,77.13
2023-05-12T23:20:43.875Z,76.64
2023-05-12T23:23:47.801Z,76.52
2023-05-12T23:26:50.529Z,77.50
2023-05-12T23:29:53.289Z,77.69
2023-05-12T23:32:55.922Z,76.78
2023-05-12T23:35:58.594Z,77.27
2023-05-12T23:39:02.557Z,78.26
2023-05-12T23:42:05.688Z,78.42
2023-05-12T23:45:09.221Z,77.87
2023-05-12T23:48:11.844Z,78.10
2023-05-12T23:51:14.634Z,78.24
2023-05-12T23:54:18.566Z,78.05
2023-05-12T23:57:21.182Z,78.43
